Tropical Cyclones
[Index]
Main Index Home Page Stock Weather Photos Extreme Storms Discussion Storm News and Storm Chasing Reports Tropical Cyclones / Hurricanes / Typhoons Weather Data and Links Wild Fires / Bushfires Weather Observation Techniques Weather Picture Catalogue Tornado Pictures and Reports Stock Video Footage and DVDs for sale
Season 1992-1993 Tropical Cyclone NINA Track Map
Season 1992-1993 Summaries: [BoM-AU] [JTWC-AU] [JTWC-SIO] [JTWC-SPAC] [JTWC-SH]
<<- Previous TC | JTWC 1992-1993 Season | Next TC ->>

click for intensity scale information  Lat/long Grid: Show Hide

 Date Labels: Show Hide

Joint Typhoon Warning Centre Cyclone Data

Name: NINA

21 Dec 1992 12:00 UTC to 04 Jan 1993 18:00 UTC

    date/time    lat    long     hPa   cat  kts
1992-12-21 12   12.7   142.7                  20          
1992-12-21 18   12.9   142.2                  20          
1992-12-22 00   13.1   141.7                  20          
1992-12-22 06   13.3   141.1                  20          
1992-12-22 12   13.4   140.5                  20          
1992-12-22 18   13.3   139.9                  25          
1992-12-23 00   13.0   139.4                  25          
1992-12-23 06   12.5   139.1                  30          
1992-12-23 12   12.0   139.3                  30          
1992-12-23 18   11.9   139.8                  35          
1992-12-24 00   12.1   140.2                  35          
1992-12-24 06   12.5   140.5            1     40          
1992-12-24 12   13.0   140.7            1     45          
1992-12-24 18   13.5   141.0            1     50          
1992-12-25 00   14.0   141.2            2     55          
1992-12-25 06   14.2   141.5            2     60          
1992-12-25 12   14.4   141.7            2     55          
1992-12-25 18   14.4   142.0            1     45          
1992-12-26 00   14.4   142.3            1     40          
1992-12-26 06   14.4   142.6                  35          
1992-12-26 12   14.4   142.9                  35          
1992-12-26 18   14.2   143.1                  30          
1992-12-27 00   14.0   143.5                  30          
1992-12-27 06   13.7   143.9                  35          
1992-12-27 12   13.5   144.5                  35          
1992-12-27 18   13.2   145.0            1     40          
1992-12-28 00   13.2   145.6            1     45          
1992-12-28 06   13.4   146.2            1     50          
1992-12-28 12   13.6   146.9            2     55          
1992-12-28 18   13.8   147.7            2     60          
1992-12-29 00   14.0   148.7            2     60          
1992-12-29 06   14.4   149.7            2     65          
1992-12-29 12   14.8   150.6            2     65          
1992-12-29 18   15.1   151.3            2     65          
1992-12-30 00   14.9   152.0            2     70          
1992-12-30 06   14.5   152.6            2     70          
1992-12-30 12   14.2   153.1            2     70          
1992-12-30 18   13.8   153.7            2     65          
1992-12-31 00   13.6   154.4            2     65          
1992-12-31 06   13.1   155.2            2     65          
1992-12-31 12   12.7   156.0            2     65          
1992-12-31 18   12.3   156.9            2     70          
1993-01-01 00   12.0   158.0            2     70          
1993-01-01 06   11.7   159.2            2     70          
1993-01-01 12   11.6   160.6            3     75          
1993-01-01 18   11.5   162.2            3     75          
1993-01-02 00   11.4   164.1            3     75          
1993-01-02 06   11.4   166.1            3     75          
1993-01-02 12   11.4   168.3            2     70          
1993-01-02 18   11.4   170.6            2     70          
1993-01-03 00   11.6   173.3            2     65          
1993-01-03 06   11.9   176.0            2     60          
1993-01-03 12   12.3   179.0            2     55          
1993-01-03 18   13.1   178.0W           1     50          
1993-01-04 00   14.6   175.3W           1     45          
1993-01-04 06   16.5   173.2W           1     40          
1993-01-04 12   18.7   171.2W                 35          
1993-01-04 18   21.3   169.3W                 25          
Winds are 1-min average.

Tropical cyclone tracks developed by Michael Bath using data from the Joint Typhoon Warning Centre Best Tracks and Google Maps.


[Australian Severe Weather index] [Copyright Notice] [Email Contacts] [Search This Site] [Privacy Policy]
Document: tropical_cyclone_nina.htm Updated: 18 September 2016